X  Close Metar Aviation Weather Data     EBBR Brussels Airport
Temperature
2°C Temperature
-1°C Dewpoint
81% Humidity



Wind
14 KM/H
9 MPH
4 M/S
8 KTS



220°
SW
Current Conditions

Clear Clear
Pressure 1010.92 (hPa) - 29.85 (inHg)
Visibility 6.2 (mile) - 10 (km)
Airport
Airport-code EBBR

Location: Brussels Airport
Distance: 14 (km)

Metar:
EBBR 030620Z 22008KT CAVOK 02/M01 Q1011 NOSIG

Time: 2021-12-03 07:20 CET